sensor_id;sensor_type;location;lat;lon;timestamp;pressure;altitude;pressure_sealevel;temperature;humidity
39141;BME280;24875;48.436;10.298;2023-05-27T00:01:01;96899.53;;;15.27;73.17
39141;BME280;24875;48.436;10.298;2023-05-27T00:03:27;96895.47;;;15.17;73.15
39141;BME280;24875;48.436;10.298;2023-05-27T00:05:55;96896.28;;;15.32;71.02
39141;BME280;24875;48.436;10.298;2023-05-27T00:08:21;96897.94;;;15.33;71.48
39141;BME280;24875;48.436;10.298;2023-05-27T00:10:48;96896.72;;;15.35;73.66
39141;BME280;24875;48.436;10.298;2023-05-27T00:13:15;96896.81;;;15.21;71.73
39141;BME280;24875;48.436;10.298;2023-05-27T00:15:41;96899.88;;;15.24;71.59
39141;BME280;24875;48.436;10.298;2023-05-27T00:18:08;96899.47;;;15.21;72.47
39141;BME280;24875;48.436;10.298;2023-05-27T00:20:35;96895.41;;;15.25;72.90
39141;BME280;24875;48.436;10.298;2023-05-27T00:23:02;96892.22;;;15.36;72.18
39141;BME280;24875;48.436;10.298;2023-05-27T00:25:29;96897.94;;;15.33;72.59
39141;BME280;24875;48.436;10.298;2023-05-27T00:27:56;96891.63;;;15.20;71.44
39141;BME280;24875;48.436;10.298;2023-05-27T00:30:23;96896.47;;;15.30;70.72
39141;BME280;24875;48.436;10.298;2023-05-27T00:32:49;96888.69;;;15.29;71.33
39141;BME280;24875;48.436;10.298;2023-05-27T00:35:16;96892.94;;;15.24;70.29
39141;BME280;24875;48.436;10.298;2023-05-27T00:37:42;96894.00;;;15.15;71.38
39141;BME280;24875;48.436;10.298;2023-05-27T00:40:11;96894.34;;;15.05;72.81
39141;BME280;24875;48.436;10.298;2023-05-27T00:42:40;96894.66;;;14.96;72.83
39141;BME280;24875;48.436;10.298;2023-05-27T00:45:08;96893.81;;;14.95;73.60
39141;BME280;24875;48.436;10.298;2023-05-27T00:47:35;96894.81;;;14.73;73.87
39141;BME280;24875;48.436;10.298;2023-05-27T00:50:03;96885.84;;;14.74;75.03
39141;BME280;24875;48.436;10.298;2023-05-27T00:52:30;96888.97;;;14.63;75.24
39141;BME280;24875;48.436;10.298;2023-05-27T00:54:57;96891.06;;;14.68;74.79
39141;BME280;24875;48.436;10.298;2023-05-27T00:57:26;96894.09;;;14.51;74.92
39141;BME280;24875;48.436;10.298;2023-05-27T00:59:52;96887.38;;;14.34;76.48
39141;BME280;24875;48.436;10.298;2023-05-27T01:02:19;96885.06;;;14.45;76.87
39141;BME280;24875;48.436;10.298;2023-05-27T01:04:46;96879.88;;;14.23;76.86
39141;BME280;24875;48.436;10.298;2023-05-27T01:07:17;96887.84;;;14.37;76.67
39141;BME280;24875;48.436;10.298;2023-05-27T01:09:53;96884.66;;;14.13;77.56
39141;BME280;24875;48.436;10.298;2023-05-27T01:12:35;96881.53;;;14.24;77.15
39141;BME280;24875;48.436;10.298;2023-05-27T01:15:05;96885.19;;;14.08;77.20
39141;BME280;24875;48.436;10.298;2023-05-27T01:17:33;96880.19;;;13.91;78.12
39141;BME280;24875;48.436;10.298;2023-05-27T01:20:03;96878.28;;;13.85;78.61
39141;BME280;24875;48.436;10.298;2023-05-27T01:22:32;96878.00;;;13.80;78.73
39141;BME280;24875;48.436;10.298;2023-05-27T01:25:01;96876.06;;;13.74;78.56
39141;BME280;24875;48.436;10.298;2023-05-27T01:27:28;96879.00;;;13.94;78.35
39141;BME280;24875;48.436;10.298;2023-05-27T01:29:54;96868.78;;;13.91;78.85
39141;BME280;24875;48.436;10.298;2023-05-27T01:32:26;96867.31;;;14.02;77.79
39141;BME280;24875;48.436;10.298;2023-05-27T01:34:57;96864.41;;;13.98;78.75
39141;BME280;24875;48.436;10.298;2023-05-27T01:37:27;96872.25;;;13.77;79.82
39141;BME280;24875;48.436;10.298;2023-05-27T01:39:57;96867.03;;;13.83;79.75
39141;BME280;24875;48.436;10.298;2023-05-27T01:42:24;96867.50;;;13.72;80.07
39141;BME280;24875;48.436;10.298;2023-05-27T01:44:52;96868.13;;;13.74;79.95
39141;BME280;24875;48.436;10.298;2023-05-27T01:47:18;96866.47;;;13.73;80.72
39141;BME280;24875;48.436;10.298;2023-05-27T01:49:45;96867.13;;;13.75;80.07
39141;BME280;24875;48.436;10.298;2023-05-27T01:52:11;96861.91;;;13.67;79.85
39141;BME280;24875;48.436;10.298;2023-05-27T01:54:38;96870.50;;;13.69;80.05
39141;BME280;24875;48.436;10.298;2023-05-27T01:57:06;96861.63;;;13.62;79.66
39141;BME280;24875;48.436;10.298;2023-05-27T01:59:33;96866.66;;;13.57;78.47
39141;BME280;24875;48.436;10.298;2023-05-27T02:01:59;96854.19;;;13.43;78.31
39141;BME280;24875;48.436;10.298;2023-05-27T02:04:26;96856.13;;;13.49;79.08
39141;BME280;24875;48.436;10.298;2023-05-27T02:06:52;96861.50;;;13.41;79.33
39141;BME280;24875;48.436;10.298;2023-05-27T02:09:18;96855.47;;;13.47;81.17
